Time;durP1;ratioP1;P1;durP2;ratioP2;P2;SDS_P1;SDS_P2;PMS_P1;PMS_P2;Temp;Humidity;BMP_temperature;BMP_pressure;BME280_temperature;BME280_humidity;BME280_pressure;Samples;Min_cycle;Max_cycle;Signal;HPM_P1;HPM_P2
2021/04/29 00:00:25;;;;;;;8.52;7.18;;;12.20;1.00;;;;;;5014525;28;20030;-74
2021/04/29 00:02:51;;;;;;;8.27;6.63;;;12.20;1.00;;;;;;5013870;28;20490;-73
2021/04/29 00:05:21;;;;;;;11.77;7.90;;;12.20;1.00;;;;;;5009892;28;20057;-74
2021/04/29 00:07:47;;;;;;;9.68;7.78;;;12.20;1.00;;;;;;5014695;28;20100;-73
2021/04/29 00:10:18;;;;;;;8.88;7.75;;;12.20;1.00;;;;;;5016986;28;20454;-75
2021/04/29 00:12:44;;;;;;;8.60;7.63;;;12.30;1.00;;;;;;5015416;28;20505;-75
2021/04/29 00:15:12;;;;;;;15.27;8.57;;;12.20;1.00;;;;;;5014635;28;20033;-73
2021/04/29 00:17:37;;;;;;;10.48;7.72;;;12.20;1.00;;;;;;5014169;28;20033;-73
2021/04/29 00:20:15;;;;;;;9.63;7.78;;;12.30;1.00;;;;;;5027579;28;20040;-73
2021/04/29 00:22:42;;;;;;;9.13;7.95;;;12.30;1.00;;;;;;5029448;28;20081;-73
2021/04/29 00:25:09;;;;;;;8.30;7.45;;;12.30;1.00;;;;;;5025199;28;20064;-73
2021/04/29 00:27:34;;;;;;;7.85;7.25;;;12.30;1.00;;;;;;5020980;28;20029;-73
2021/04/29 00:30:00;;;;;;;8.50;7.72;;;12.30;1.00;;;;;;5027832;28;20400;-74
2021/04/29 00:32:26;;;;;;;7.75;7.03;;;12.30;1.00;;;;;;5028580;28;20026;-74
2021/04/29 00:34:51;;;;;;;9.52;8.50;;;12.40;1.00;;;;;;5027962;28;20397;-73
2021/04/29 00:37:17;;;;;;;11.95;7.70;;;12.40;1.00;;;;;;5028031;28;20018;-73
2021/04/29 00:39:42;;;;;;;8.73;8.02;;;12.40;1.00;;;;;;5020843;28;20038;-73
2021/04/29 00:42:08;;;;;;;8.80;7.97;;;12.50;1.00;;;;;;5026060;28;20026;-73
2021/04/29 00:44:34;;;;;;;10.07;8.10;;;12.50;1.00;;;;;;5020736;28;20033;-73
2021/04/29 00:47:00;;;;;;;9.68;8.77;;;12.40;1.00;;;;;;5021056;28;20044;-74
2021/04/29 00:49:26;;;;;;;9.35;8.35;;;12.40;1.00;;;;;;5011285;28;20496;-74
2021/04/29 00:51:51;;;;;;;9.05;8.15;;;12.40;1.00;;;;;;5010106;28;20042;-74
2021/04/29 00:54:17;;;;;;;9.15;8.13;;;12.40;1.00;;;;;;5013508;28;20531;-74
2021/04/29 00:56:43;;;;;;;9.02;8.13;;;12.40;1.00;;;;;;5013277;28;20113;-74
2021/04/29 00:59:09;;;;;;;9.73;8.27;;;12.40;1.00;;;;;;5003049;28;20034;-73
2021/04/29 01:01:35;;;;;;;9.13;8.32;;;12.50;1.00;;;;;;5008023;28;20072;-73
2021/04/29 01:04:13;;;;;;;10.27;9.38;;;12.50;1.00;;;;;;5010294;28;20025;-75
2021/04/29 01:06:48;;;;;;;9.38;7.47;;;12.60;1.00;;;;;;5011282;28;20124;-73
2021/04/29 01:09:24;;;;;;;9.10;8.18;;;12.60;1.00;;;;;;5017159;28;20500;-74
2021/04/29 01:12:03;;;;;;;8.57;7.78;;;12.60;1.00;;;;;;5015047;28;20597;-73
2021/04/29 01:14:30;;;;;;;9.55;8.13;;;12.60;1.00;;;;;;5012214;28;20034;-73
2021/04/29 01:16:58;;;;;;;10.45;7.60;;;12.60;1.00;;;;;;5014805;28;20084;-73
2021/04/29 01:19:47;;;;;;;9.40;7.88;;;12.60;1.00;;;;;;5010981;28;20081;-76
2021/04/29 01:22:14;;;;;;;7.78;7.07;;;12.60;1.00;;;;;;5013106;28;20018;-74
2021/04/29 01:24:49;;;;;;;10.70;7.75;;;12.60;1.00;;;;;;5011816;28;20041;-73
2021/04/29 01:27:16;;;;;;;8.07;7.38;;;12.60;1.00;;;;;;5013491;28;20489;-75
2021/04/29 01:29:43;;;;;;;7.68;6.60;;;12.60;1.00;;;;;;5016107;28;20052;-73
2021/04/29 01:32:09;;;;;;;7.07;6.38;;;12.70;1.00;;;;;;5022091;28;20057;-72
2021/04/29 01:34:39;;;;;;;7.82;7.13;;;12.70;1.00;;;;;;5022024;28;20056;-73
2021/04/29 01:37:06;;;;;;;7.32;6.63;;;12.70;1.00;;;;;;5023677;28;20040;-73
2021/04/29 01:39:33;;;;;;;7.95;6.40;;;12.70;1.00;;;;;;5020763;28;20397;-73
2021/04/29 01:41:59;;;;;;;7.78;6.97;;;12.70;1.00;;;;;;5015053;28;20022;-74
2021/04/29 01:44:46;;;;;;;6.10;5.50;;;12.80;1.00;;;;;;5016467;28;20053;-75
2021/04/29 01:47:11;;;;;;;6.85;5.93;;;12.80;1.00;;;;;;5013684;28;20058;-74
2021/04/29 01:49:38;;;;;;;6.03;4.88;;;12.70;1.00;;;;;;5021234;28;20026;-74
2021/04/29 01:52:04;;;;;;;5.95;5.45;;;12.80;1.00;;;;;;5031730;28;20058;-73
2021/04/29 01:54:29;;;;;;;6.35;5.50;;;12.70;1.00;;;;;;5033841;28;20041;-73
2021/04/29 01:56:55;;;;;;;5.80;5.18;;;12.80;1.00;;;;;;5031166;28;20014;-73
2021/04/29 01:59:21;;;;;;;5.38;4.88;;;12.70;1.00;;;;;;5029494;28;20026;-72
2021/04/29 02:01:48;;;;;;;5.38;4.90;;;12.80;1.00;;;;;;5031175;28;20022;-73
2021/04/29 02:04:14;;;;;;;5.72;5.22;;;12.80;1.00;;;;;;5032362;28;20109;-73
2021/04/29 02:06:41;;;;;;;4.80;4.43;;;12.80;1.00;;;;;;5023069;28;20030;-75
2021/04/29 02:09:08;;;;;;;5.78;4.25;;;12.80;1.00;;;;;;5017428;28;20033;-73
2021/04/29 02:11:37;;;;;;;4.65;4.25;;;12.70;1.00;;;;;;5015625;28;20445;-75
2021/04/29 02:14:06;;;;;;;4.85;4.45;;;12.70;1.00;;;;;;5009831;28;20532;-75
2021/04/29 02:16:42;;;;;;;4.20;3.85;;;12.70;1.00;;;;;;5013535;28;20034;-75
2021/04/29 02:19:09;;;;;;;3.50;3.20;;;12.70;1.00;;;;;;5011958;28;20030;-73
2021/04/29 02:21:37;;;;;;;5.68;4.00;;;12.70;1.00;;;;;;5015170;28;20146;-74
2021/04/29 02:24:04;;;;;;;3.15;2.95;;;12.70;1.00;;;;;;5016844;28;20366;-75
2021/04/29 02:26:32;;;;;;;3.38;3.08;;;12.70;1.00;;;;;;5017312;28;20033;-73
2021/04/29 02:28:58;;;;;;;3.60;2.90;;;12.70;1.00;;;;;;5018912;28;20113;-74
2021/04/29 02:31:24;;;;;;;3.15;2.85;;;12.70;1.00;;;;;;5016274;28;20046;-73
2021/04/29 02:33:51;;;;;;;2.55;2.10;;;12.70;1.00;;;;;;5013783;28;20044;-74
2021/04/29 02:36:17;;;;;;;2.33;2.13;;;12.70;1.00;;;;;;5012102;28;20031;-72
2021/04/29 02:38:43;;;;;;;2.55;2.15;;;12.70;1.00;;;;;;5014807;28;20037;-74
2021/04/29 02:41:09;;;;;;;1.63;1.48;;;12.70;1.00;;;;;;5013656;28;20219;-73
2021/04/29 02:43:35;;;;;;;1.38;1.25;;;12.70;1.00;;;;;;5016320;28;20042;-74
2021/04/29 02:46:02;;;;;;;1.30;1.20;;;12.70;1.00;;;;;;5028612;28;20093;-74
2021/04/29 02:48:28;;;;;;;1.30;1.20;;;12.70;1.00;;;;;;5013257;28;20035;-74
2021/04/29 02:50:54;;;;;;;2.50;1.63;;;12.80;1.00;;;;;;5015846;28;20047;-74
2021/04/29 02:53:20;;;;;;;1.23;1.13;;;12.70;1.00;;;;;;5016587;28;20026;-74
2021/04/29 02:55:48;;;;;;;3.75;3.33;;;12.70;1.00;;;;;;5016067;28;20192;-74
2021/04/29 02:58:16;;;;;;;4.28;3.60;;;12.60;1.00;;;;;;5013516;28;20028;-74
2021/04/29 03:00:43;;;;;;;4.75;3.30;;;12.60;1.00;;;;;;5014001;28;20056;-73
2021/04/29 03:03:09;;;;;;;3.42;3.13;;;12.40;1.00;;;;;;5013302;28;20407;-73
2021/04/29 03:05:37;;;;;;;2.25;2.05;;;12.30;1.00;;;;;;5011997;28;20057;-73
2021/04/29 03:08:03;;;;;;;3.60;2.67;;;12.10;1.00;;;;;;5014891;28;20045;-72
2021/04/29 03:10:30;;;;;;;1.92;1.83;;;12.20;1.00;;;;;;5014045;28;20516;-72
2021/04/29 03:12:55;;;;;;;2.33;1.88;;;12.10;1.00;;;;;;5012947;28;20124;-73
2021/04/29 03:15:21;;;;;;;1.70;1.60;;;12.10;1.00;;;;;;5014772;28;20115;-74
2021/04/29 03:17:47;;;;;;;1.60;1.40;;;12.10;1.00;;;;;;5013861;28;20485;-74
2021/04/29 03:20:13;;;;;;;2.72;1.45;;;12.10;1.00;;;;;;5015224;28;20076;-73
2021/04/29 03:22:39;;;;;;;1.45;1.35;;;12.10;1.00;;;;;;5014483;28;20037;-74
2021/04/29 03:25:05;;;;;;;1.45;1.20;;;12.10;1.00;;;;;;5012520;28;20026;-73
2021/04/29 03:27:31;;;;;;;1.42;1.33;;;12.00;1.00;;;;;;5013956;28;20081;-74
2021/04/29 03:29:56;;;;;;;1.85;1.20;;;12.00;1.00;;;;;;5014571;28;20034;-76
2021/04/29 03:32:22;;;;;;;1.27;1.17;;;12.00;1.00;;;;;;5011535;28;20029;-73
2021/04/29 03:34:48;;;;;;;1.08;1.00;;;12.00;1.00;;;;;;5010373;28;20325;-74
2021/04/29 03:37:14;;;;;;;0.88;0.88;;;11.90;1.00;;;;;;5012593;28;20371;-74
2021/04/29 03:39:39;;;;;;;1.10;1.00;;;11.90;1.00;;;;;;5013681;28;20099;-74
2021/04/29 03:42:09;;;;;;;0.80;0.80;;;11.90;1.00;;;;;;5016697;28;20022;-74
2021/04/29 03:44:35;;;;;;;1.05;0.95;;;11.90;1.00;;;;;;5017649;28;20026;-75
2021/04/29 03:47:01;;;;;;;1.48;1.10;;;11.90;1.00;;;;;;5014397;28;20030;-75
2021/04/29 03:49:27;;;;;;;1.73;0.77;;;11.90;1.00;;;;;;5014128;28;20615;-75
2021/04/29 03:51:52;;;;;;;0.82;0.82;;;11.80;1.00;;;;;;5014557;28;20034;-74
2021/04/29 03:54:18;;;;;;;1.15;1.05;;;11.80;1.00;;;;;;5013904;28;20101;-73
2021/04/29 03:56:44;;;;;;;0.70;0.70;;;11.80;1.00;;;;;;5013057;28;20021;-73
2021/04/29 03:59:09;;;;;;;0.75;0.75;;;11.70;1.00;;;;;;5011955;28;20152;-73
2021/04/29 04:01:35;;;;;;;0.65;0.52;;;11.70;1.00;;;;;;5012237;28;20027;-73
2021/04/29 04:04:00;;;;;;;1.38;1.27;;;11.70;1.00;;;;;;5014029;28;20037;-73
2021/04/29 04:06:26;;;;;;;0.70;0.70;;;11.70;1.00;;;;;;5013365;28;20053;-76
2021/04/29 04:08:51;;;;;;;0.50;0.50;;;11.70;1.00;;;;;;5013743;28;20481;-74
2021/04/29 04:11:17;;;;;;;1.58;0.70;;;11.70;1.00;;;;;;5013347;28;20490;-73
2021/04/29 04:13:42;;;;;;;1.88;0.95;;;11.70;1.00;;;;;;5014237;28;20034;-72
2021/04/29 04:16:11;;;;;;;1.15;0.50;;;11.70;1.00;;;;;;5007487;28;20034;-74
2021/04/29 04:18:37;;;;;;;0.35;0.35;;;11.60;1.00;;;;;;5010766;28;20405;-74
2021/04/29 04:21:03;;;;;;;2.35;0.47;;;11.60;1.00;;;;;;5014008;28;20516;-73
2021/04/29 04:23:29;;;;;;;0.70;0.68;;;11.50;1.00;;;;;;5015167;28;20022;-72
2021/04/29 04:25:54;;;;;;;0.60;0.50;;;11.50;1.00;;;;;;5014768;28;20026;-73
2021/04/29 04:28:20;;;;;;;1.42;0.57;;;11.40;1.00;;;;;;5009916;28;20101;-71
2021/04/29 04:30:46;;;;;;;0.77;0.77;;;11.40;1.00;;;;;;5013291;28;20037;-74
2021/04/29 04:33:11;;;;;;;0.80;0.80;;;11.40;1.00;;;;;;5012624;28;20366;-72
2021/04/29 04:35:37;;;;;;;1.20;1.13;;;11.40;1.00;;;;;;5009106;28;20065;-73
2021/04/29 04:38:02;;;;;;;2.85;0.88;;;11.40;1.00;;;;;;5011964;28;20041;-73
2021/04/29 04:40:28;;;;;;;0.80;0.65;;;11.40;1.00;;;;;;5013752;28;21101;-74
2021/04/29 04:42:54;;;;;;;1.23;0.93;;;11.40;1.00;;;;;;5010843;28;20041;-73
2021/04/29 04:45:19;;;;;;;1.05;0.70;;;11.40;1.00;;;;;;5011614;28;20041;-73
2021/04/29 04:47:45;;;;;;;1.30;0.68;;;11.40;1.00;;;;;;5013257;28;20029;-73
2021/04/29 04:50:11;;;;;;;0.60;0.60;;;11.50;1.00;;;;;;5012232;28;20022;-75
2021/04/29 04:52:37;;;;;;;1.67;0.95;;;11.60;1.00;;;;;;5013791;28;20524;-75
2021/04/29 04:55:03;;;;;;;0.80;0.80;;;11.60;1.00;;;;;;5014239;28;20482;-74
2021/04/29 04:57:29;;;;;;;2.15;0.65;;;11.70;1.00;;;;;;5011689;28;20188;-73
2021/04/29 04:59:55;;;;;;;1.15;0.75;;;11.80;1.00;;;;;;5011491;28;20037;-74
2021/04/29 05:02:21;;;;;;;2.53;1.13;;;11.90;1.00;;;;;;5011700;28;20117;-73
2021/04/29 05:04:46;;;;;;;1.00;0.90;;;12.00;1.00;;;;;;5013591;28;20068;-74
2021/04/29 05:07:12;;;;;;;0.95;0.90;;;12.40;1.00;;;;;;5012788;28;20103;-73
2021/04/29 05:09:39;;;;;;;1.25;1.15;;;12.70;99.90;;;;;;5012310;28;20026;-73
2021/04/29 05:12:05;;;;;;;1.88;0.82;;;12.90;99.90;;;;;;5010481;28;20034;-73
2021/04/29 05:14:30;;;;;;;2.30;0.90;;;12.80;99.90;;;;;;4998969;28;20085;-73
2021/04/29 05:16:57;;;;;;;0.88;0.85;;;12.90;99.90;;;;;;4994006;28;20486;-73
2021/04/29 05:19:22;;;;;;;1.00;0.80;;;13.10;99.90;;;;;;4995842;28;20367;-73
2021/04/29 05:21:48;;;;;;;0.75;0.75;;;13.50;99.90;;;;;;5004298;28;20048;-74
2021/04/29 05:24:14;;;;;;;1.27;0.80;;;13.90;99.90;;;;;;5016307;28;20014;-74
2021/04/29 05:26:40;;;;;;;2.03;0.90;;;14.00;99.90;;;;;;5012214;28;20506;-74
2021/04/29 05:29:07;;;;;;;1.85;0.98;;;13.90;99.90;;;;;;5014617;28;20405;-73
2021/04/29 05:31:33;;;;;;;2.97;0.90;;;13.50;99.90;;;;;;5016168;28;20040;-74
2021/04/29 05:33:58;;;;;;;1.30;1.17;;;13.30;99.90;;;;;;5014134;28;20021;-74
2021/04/29 05:36:24;;;;;;;1.20;1.10;;;13.20;99.90;;;;;;5014664;28;20026;-74
2021/04/29 05:38:49;;;;;;;2.88;1.35;;;13.00;99.90;;;;;;5014880;28;20038;-74
2021/04/29 05:41:16;;;;;;;1.15;1.05;;;12.90;99.90;;;;;;5018098;28;20037;-74
2021/04/29 05:43:42;;;;;;;3.90;1.15;;;12.80;99.90;;;;;;5017847;28;20030;-74
2021/04/29 05:46:16;;;;;;;4.85;1.58;;;12.70;99.90;;;;;;5033401;22;20061;-74
2021/04/29 05:48:57;;;;;;;1.88;1.38;;;12.70;99.90;;;;;;5012572;28;20025;-74
2021/04/29 05:51:28;;;;;;;3.47;2.10;;;12.60;99.90;;;;;;5013569;28;20029;-75
2021/04/29 05:54:05;;;;;;;2.05;1.70;;;12.60;99.90;;;;;;5013482;28;20030;-75
2021/04/29 05:56:41;;;;;;;1.63;1.50;;;12.60;99.90;;;;;;5013842;28;20057;-75
2021/04/29 05:59:09;;;;;;;1.55;1.40;;;12.60;99.90;;;;;;5008519;28;20034;-75
2021/04/29 06:01:42;;;;;;;2.70;1.95;;;12.60;99.90;;;;;;5011165;28;20112;-75
2021/04/29 06:04:11;;;;;;;4.20;2.03;;;12.60;99.90;;;;;;5034125;28;20057;-74
2021/04/29 06:06:39;;;;;;;2.75;2.22;;;12.70;99.90;;;;;;5015708;28;20026;-73
2021/04/29 06:09:07;;;;;;;4.78;1.75;;;12.80;99.90;;;;;;5022568;28;20420;-75
2021/04/29 06:11:39;;;;;;;4.18;2.22;;;12.90;99.90;;;;;;5010756;28;20097;-74
2021/04/29 06:14:07;;;;;;;5.07;1.90;;;13.00;99.90;;;;;;5013999;28;20030;-73
2021/04/29 06:16:38;;;;;;;3.55;2.38;;;13.10;99.90;;;;;;5000156;28;20057;-75
2021/04/29 06:19:10;;;;;;;5.47;1.83;;;13.20;99.90;;;;;;5016853;28;20347;-74
2021/04/29 06:21:38;;;;;;;;;;;13.40;99.90;;;;;;5012671;28;20029;-74
2021/04/29 06:24:06;;;;;;;4.55;1.63;;;13.50;99.90;;;;;;5010542;28;19924;-74
2021/04/29 06:26:38;;;;;;;5.53;2.15;;;13.70;99.90;;;;;;5006050;28;20501;-75
2021/04/29 06:29:04;;;;;;;3.28;1.88;;;13.80;99.90;;;;;;5010447;28;20037;-75
2021/04/29 06:31:37;;;;;;;2.40;2.20;;;14.00;99.90;;;;;;5013502;28;20058;-74
2021/04/29 06:34:06;;;;;;;3.10;1.80;;;14.20;99.90;;;;;;5005400;28;20026;-74
2021/04/29 06:36:50;;;;;;;4.25;2.00;;;14.30;98.90;;;;;;5018008;28;20028;-75
2021/04/29 06:39:19;;;;;;;3.42;2.17;;;14.30;99.90;;;;;;5012931;28;20026;-74
2021/04/29 06:42:17;;;;;;;3.60;2.20;;;14.50;84.70;;;;;;5005321;28;20465;-74
2021/04/29 06:44:46;;;;;;;3.15;2.00;;;14.50;90.60;;;;;;5004838;28;20406;-74
2021/04/29 06:47:31;;;;;;;;;;;;;;;;;;;;;
2021/04/29 06:49:59;;;;;;;5.38;1.95;;;14.90;6.90;;;;;;4996617;28;20049;-76
2021/04/29 06:52:33;;;;;;;6.28;2.70;;;15.10;1.00;;;;;;5012937;28;20022;-75
2021/04/29 06:55:02;;;;;;;2.45;2.25;;;15.10;1.00;;;;;;5009749;28;20228;-75
2021/04/29 06:57:33;;;;;;;4.63;2.78;;;15.40;1.00;;;;;;5015008;28;20548;-75
2021/04/29 07:00:18;;;;;;;3.90;2.70;;;15.60;99.90;;;;;;5007151;28;20050;-75
2021/04/29 07:02:50;;;;;;;4.53;4.10;;;15.70;99.90;;;;;;5005121;28;20022;-75
2021/04/29 07:05:17;;;;;;;4.30;3.22;;;15.70;99.90;;;;;;4992856;28;20072;-75
2021/04/29 07:07:46;;;;;;;5.80;3.17;;;15.60;99.90;;;;;;5005308;28;20035;-75
2021/04/29 07:10:15;;;;;;;3.17;2.88;;;15.80;99.90;;;;;;5005370;28;20034;-75
2021/04/29 07:12:48;;;;;;;4.05;3.58;;;16.00;99.90;;;;;;5009485;28;20092;-76
2021/04/29 07:15:32;;;;;;;3.50;2.88;;;15.70;99.90;;;;;;5015508;28;20082;-74
2021/04/29 07:18:10;;;;;;;5.93;3.50;;;15.80;99.90;;;;;;5012002;28;20040;-76
2021/04/29 07:20:54;;;;;;;3.58;3.00;;;15.90;99.90;;;;;;5008890;28;20034;-75
2021/04/29 07:23:24;;;;;;;5.40;2.92;;;15.70;99.90;;;;;;5000542;28;20030;-74
2021/04/29 07:25:59;;;;;;;4.20;3.80;;;15.80;99.90;;;;;;5013044;28;20022;-76
2021/04/29 07:28:29;;;;;;;5.82;4.05;;;15.80;99.90;;;;;;5009129;28;20092;-75
2021/04/29 07:31:07;;;;;;;5.35;3.55;;;15.90;99.90;;;;;;5009660;28;20109;-75
2021/04/29 07:33:39;;;;;;;6.63;3.20;;;15.90;99.90;;;;;;5015189;28;20037;-75
2021/04/29 07:36:06;;;;;;;5.35;3.25;;;16.00;99.90;;;;;;5003554;28;20150;-75
2021/04/29 07:38:31;;;;;;;5.28;3.45;;;15.90;97.50;;;;;;5007068;28;20097;-73
2021/04/29 07:40:57;;;;;;;5.78;4.03;;;15.90;99.90;;;;;;5005352;28;20478;-73
2021/04/29 07:43:23;;;;;;;6.00;4.75;;;15.80;1.00;;;;;;5008410;28;20038;-73
2021/04/29 07:45:48;;;;;;;13.15;4.25;;;15.80;95.60;;;;;;5014434;28;20033;-72
2021/04/29 07:48:14;;;;;;;5.90;4.45;;;15.80;99.90;;;;;;5012996;28;20033;-74
2021/04/29 07:50:40;;;;;;;4.75;3.60;;;15.80;99.90;;;;;;5013126;28;20031;-75
2021/04/29 07:53:08;;;;;;;4.65;4.10;;;16.10;69.60;;;;;;4986977;28;20023;-73
2021/04/29 07:55:34;;;;;;;4.85;3.78;;;16.20;36.80;;;;;;4997175;28;20112;-73
2021/04/29 07:57:59;;;;;;;4.72;4.22;;;16.10;99.90;;;;;;5000829;28;20033;-74
2021/04/29 08:00:26;;;;;;;6.25;3.70;;;16.10;1.00;;;;;;5013235;28;20030;-73
2021/04/29 08:02:51;;;;;;;8.07;3.35;;;16.00;1.00;;;;;;4999073;28;20022;-74
2021/04/29 08:05:17;;;;;;;3.67;3.33;;;15.90;47.20;;;;;;5009327;28;20029;-74
2021/04/29 08:07:43;;;;;;;4.82;4.05;;;16.00;9.60;;;;;;5008015;28;20026;-73
2021/04/29 08:10:10;;;;;;;4.80;4.13;;;16.30;1.60;;;;;;5009081;28;20037;-75
2021/04/29 08:12:36;;;;;;;3.92;3.47;;;16.60;1.00;;;;;;5005629;28;20030;-75
2021/04/29 08:15:03;;;;;;;4.68;4.22;;;16.90;99.90;;;;;;5015432;28;20026;-76
2021/04/29 08:17:29;;;;;;;5.38;4.80;;;16.90;99.90;;;;;;5013859;28;20109;-73
2021/04/29 08:19:55;;;;;;;5.25;4.75;;;16.70;1.00;;;;;;5011482;28;20026;-75
2021/04/29 08:22:23;;;;;;;5.72;4.45;;;16.70;99.90;;;;;;5015405;28;20022;-74
2021/04/29 08:24:48;;;;;;;6.60;4.90;;;16.90;99.90;;;;;;5013111;28;20031;-76
2021/04/29 08:27:14;;;;;;;5.40;4.90;;;17.00;99.90;;;;;;5001814;28;20117;-74
2021/04/29 08:29:40;;;;;;;5.97;4.60;;;17.00;99.90;;;;;;5011867;28;20110;-74
2021/04/29 08:32:06;;;;;;;7.00;5.30;;;16.80;12.90;;;;;;5006855;28;20023;-76
2021/04/29 08:34:31;;;;;;;5.82;4.68;;;16.80;99.90;;;;;;5008509;28;20030;-76
2021/04/29 08:36:57;;;;;;;4.60;4.20;;;16.90;99.90;;;;;;5008086;28;20021;-73
2021/04/29 08:39:23;;;;;;;6.57;4.82;;;17.00;99.90;;;;;;5000740;28;20046;-74
2021/04/29 08:41:49;;;;;;;10.45;5.68;;;17.30;99.90;;;;;;4997583;28;20029;-73
2021/04/29 08:44:15;;;;;;;7.20;4.78;;;17.50;99.90;;;;;;5013433;28;20022;-74
2021/04/29 08:46:41;;;;;;;5.40;4.50;;;17.80;99.90;;;;;;5001549;28;20037;-74
2021/04/29 08:49:07;;;;;;;8.07;4.88;;;18.00;99.90;;;;;;5008026;28;20026;-74
2021/04/29 08:51:33;;;;;;;7.25;4.78;;;18.00;1.00;;;;;;5006872;28;20157;-75
2021/04/29 08:54:00;;;;;;;5.10;4.43;;;18.00;51.70;;;;;;5003354;28;20022;-73
2021/04/29 08:56:26;;;;;;;7.57;5.75;;;18.00;1.00;;;;;;5003042;28;20026;-74
2021/04/29 08:58:57;;;;;;;7.05;4.63;;;18.00;1.00;;;;;;5009959;28;20069;-74
2021/04/29 09:01:24;;;;;;;5.85;4.97;;;18.00;99.90;;;;;;5009094;28;20021;-75
2021/04/29 09:03:50;;;;;;;6.15;5.00;;;17.80;99.90;;;;;;5011400;28;20084;-75
2021/04/29 09:06:17;;;;;;;8.18;5.40;;;17.80;99.90;;;;;;5013729;28;20022;-74
2021/04/29 09:08:45;;;;;;;6.47;5.05;;;17.80;58.50;;;;;;5012408;28;20022;-74
2021/04/29 09:11:15;;;;;;;7.10;5.18;;;17.40;99.90;;;;;;5011425;28;20022;-75
2021/04/29 09:13:53;;;;;;;10.02;6.20;;;17.30;99.90;;;;;;5012592;28;20022;-74
2021/04/29 09:16:19;;;;;;;6.45;5.78;;;17.00;1.00;;;;;;5032902;28;20026;-73
2021/04/29 09:18:45;;;;;;;11.32;5.15;;;16.90;1.00;;;;;;5007997;28;20057;-74
2021/04/29 09:21:14;;;;;;;5.82;5.15;;;16.70;1.00;;;;;;5009856;28;20482;-74
2021/04/29 09:23:45;;;;;;;7.43;5.25;;;16.50;1.00;;;;;;5000709;28;20710;-74
2021/04/29 09:26:13;;;;;;;7.65;5.32;;;16.20;99.90;;;;;;5015277;28;20478;-72
2021/04/29 09:28:44;;;;;;;5.75;5.22;;;15.90;90.50;;;;;;5014162;28;20031;-73
2021/04/29 09:31:17;;;;;;;;;;;15.60;1.00;;;;;;5017679;28;20025;-72
2021/04/29 09:33:49;;;;;;;6.80;6.15;;;14.90;93.90;;;;;;5005757;28;19961;-73
2021/04/29 09:36:30;;;;;;;6.40;5.80;;;14.20;99.90;;;;;;5010440;28;20427;-72
2021/04/29 09:39:05;;;;;;;7.43;6.72;;;13.80;99.90;;;;;;5018962;28;20038;-72
2021/04/29 09:41:36;;;;;;;8.20;6.68;;;13.60;99.90;;;;;;5011349;28;20034;-73
2021/04/29 09:44:07;;;;;;;6.78;6.13;;;13.70;99.90;;;;;;5002068;28;20033;-73
2021/04/29 09:46:42;;;;;;;7.28;5.22;;;13.70;99.90;;;;;;5009115;28;20034;-72
2021/04/29 09:49:32;;;;;;;7.55;5.55;;;13.60;99.90;;;;;;5005319;28;20439;-72
2021/04/29 09:52:19;;;;;;;6.47;5.60;;;13.60;99.90;;;;;;5005905;28;20212;-75
2021/04/29 09:54:46;;;;;;;6.22;5.60;;;13.60;99.90;;;;;;5010352;28;20052;-75
2021/04/29 09:57:15;;;;;;;6.40;5.90;;;13.60;99.90;;;;;;5004386;28;20139;-75
2021/04/29 09:59:43;;;;;;;8.52;5.85;;;13.60;99.90;;;;;;5009647;28;20474;-74
2021/04/29 10:02:13;;;;;;;6.97;6.28;;;13.60;99.90;;;;;;4999684;28;20029;-74
2021/04/29 10:04:40;;;;;;;8.85;6.32;;;13.70;99.90;;;;;;5013107;28;20022;-75
2021/04/29 10:07:07;;;;;;;5.97;5.47;;;14.00;99.90;;;;;;5009922;28;20033;-76
2021/04/29 10:09:34;;;;;;;6.18;5.32;;;14.30;99.90;;;;;;5006096;28;20034;-76
2021/04/29 10:12:14;;;;;;;6.28;5.65;;;14.80;99.90;;;;;;5013382;28;20030;-75
2021/04/29 10:14:39;;;;;;;5.88;5.28;;;15.10;99.90;;;;;;5015410;28;20052;-75
2021/04/29 10:17:07;;;;;;;8.75;5.50;;;15.30;99.90;;;;;;4997945;28;20097;-76
2021/04/29 10:19:37;;;;;;;11.68;5.60;;;15.50;99.90;;;;;;5001324;28;20117;-76
2021/04/29 10:22:04;;;;;;;5.28;4.78;;;15.70;81.90;;;;;;4994693;28;20057;-74
2021/04/29 10:24:29;;;;;;;7.00;5.47;;;16.10;71.90;;;;;;5010008;28;20504;-75
2021/04/29 10:27:08;;;;;;;5.57;4.78;;;16.30;1.00;;;;;;5003623;28;20025;-75
2021/04/29 10:29:35;;;;;;;6.18;4.50;;;16.10;1.00;;;;;;5001154;28;20037;-75
2021/04/29 10:32:03;;;;;;;6.72;5.95;;;16.40;1.00;;;;;;5003084;28;20138;-75
2021/04/29 10:34:47;;;;;;;6.10;4.95;;;16.70;1.00;;;;;;5001720;28;20121;-76
2021/04/29 10:37:19;;;;;;;8.10;4.65;;;16.80;99.90;;;;;;5012508;28;20038;-74
2021/04/29 10:39:55;;;;;;;5.10;4.60;;;17.00;99.90;;;;;;5016810;28;20025;-76
2021/04/29 10:42:21;;;;;;;5.45;4.90;;;17.00;14.20;;;;;;5012988;28;20022;-76
2021/04/29 10:44:49;;;;;;;5.05;4.55;;;17.00;11.50;;;;;;5002673;28;20042;-75
2021/04/29 10:47:29;;;;;;;5.88;4.88;;;17.10;2.40;;;;;;5007444;28;20402;-75
2021/04/29 10:50:13;;;;;;;6.50;5.70;;;17.20;49.30;;;;;;5020032;28;20033;-75
2021/04/29 10:53:01;;;;;;;5.50;5.00;;;17.20;13.00;;;;;;5006056;28;20030;-75
2021/04/29 10:55:31;;;;;;;6.10;5.35;;;17.50;90.00;;;;;;5016004;28;20025;-73
2021/04/29 10:57:58;;;;;;;4.45;4.00;;;17.50;99.90;;;;;;5002869;28;20030;-75
2021/04/29 11:00:33;;;;;;;4.25;3.85;;;17.90;99.90;;;;;;5004076;28;20475;-75
2021/04/29 11:03:05;;;;;;;5.57;5.07;;;18.30;1.00;;;;;;5011347;28;20560;-77
2021/04/29 11:05:37;;;;;;;7.50;4.30;;;18.50;99.90;;;;;;5020660;28;20061;-77
2021/04/29 11:08:12;;;;;;;5.60;3.58;;;18.20;99.90;;;;;;5015045;28;20117;-76
2021/04/29 11:10:39;;;;;;;4.05;3.65;;;16.80;1.00;;;;;;5016342;28;20033;-78
2021/04/29 11:13:07;;;;;;;6.90;3.53;;;15.90;99.90;;;;;;5010642;28;20034;-77
2021/04/29 11:15:33;;;;;;;5.95;3.78;;;15.50;92.60;;;;;;5021178;28;20030;-78
2021/04/29 11:18:12;;;;;;;4.35;3.60;;;14.50;1.00;;;;;;5013634;28;20058;-74
2021/04/29 11:20:48;;;;;;;4.13;3.83;;;14.10;99.90;;;;;;5005484;28;20030;-74
2021/04/29 11:23:19;;;;;;;5.65;4.13;;;14.10;1.00;;;;;;5012352;28;20026;-73
2021/04/29 11:25:45;;;;;;;;;;;14.30;1.00;;;;;;5006947;28;20027;-73
2021/04/29 11:28:11;;;;;;;3.53;2.90;;;14.90;9.50;;;;;;5005324;28;19988;-72
2021/04/29 11:30:39;;;;;;;5.63;3.95;;;14.70;46.50;;;;;;5000646;28;20060;-74
2021/04/29 11:33:09;;;;;;;4.40;4.00;;;14.30;99.90;;;;;;5011834;28;20113;-74
2021/04/29 11:35:37;;;;;;;8.48;3.58;;;13.90;99.90;;;;;;5016106;28;20119;-74
2021/04/29 11:38:06;;;;;;;3.65;3.05;;;13.90;12.30;;;;;;5015822;28;20474;-75
2021/04/29 11:40:33;;;;;;;3.60;2.95;;;13.60;26.30;;;;;;5010916;28;20040;-74
2021/04/29 11:43:00;;;;;;;3.25;2.85;;;13.50;28.60;;;;;;5002489;28;20026;-73
2021/04/29 11:45:28;;;;;;;3.63;3.20;;;13.50;50.50;;;;;;5014149;28;20537;-75
2021/04/29 11:47:58;;;;;;;3.40;3.10;;;13.80;55.30;;;;;;5047934;22;20532;-74
2021/04/29 11:50:35;;;;;;;3.42;3.03;;;13.90;1.00;;;;;;5026550;28;20033;-73
2021/04/29 11:53:36;;;;;;;3.88;3.00;;;13.80;99.90;;;;;;5022056;28;20085;-73
2021/04/29 11:56:05;;;;;;;3.88;2.90;;;13.90;99.90;;;;;;4995221;28;20041;-74
2021/04/29 11:58:32;;;;;;;3.30;3.00;;;14.00;99.90;;;;;;5013926;28;20037;-74
2021/04/29 12:00:58;;;;;;;6.78;3.30;;;14.00;1.00;;;;;;5014524;28;20068;-73
2021/04/29 12:03:26;;;;;;;3.25;2.60;;;14.30;99.90;;;;;;5012992;28;20065;-73
2021/04/29 12:05:54;;;;;;;4.65;4.18;;;14.20;1.00;;;;;;5013780;28;20343;-74
2021/04/29 12:08:25;;;;;;;8.52;3.15;;;14.20;1.00;;;;;;5006352;28;20021;-73
2021/04/29 12:10:56;;;;;;;4.28;2.80;;;14.40;99.90;;;;;;5008505;28;20378;-74
2021/04/29 12:13:48;;;;;;;4.68;3.10;;;14.60;1.00;;;;;;5013740;28;20037;-72
2021/04/29 12:16:20;;;;;;;7.03;3.53;;;15.20;99.90;;;;;;5013158;28;20034;-73
2021/04/29 12:18:52;;;;;;;3.03;2.70;;;15.10;99.90;;;;;;5010020;28;20509;-73
2021/04/29 12:21:20;;;;;;;6.88;2.50;;;15.00;1.00;;;;;;5010127;28;20428;-74
2021/04/29 12:23:54;;;;;;;3.05;2.40;;;14.90;99.90;;;;;;5007896;28;20030;-75
2021/04/29 12:26:35;;;;;;;4.68;2.67;;;15.00;99.90;;;;;;5013257;28;20374;-73
2021/04/29 12:29:07;;;;;;;2.90;2.65;;;15.30;50.80;;;;;;5013308;28;20029;-74
2021/04/29 12:31:35;;;;;;;2.72;2.30;;;15.30;10.10;;;;;;5013870;28;20393;-73
2021/04/29 12:34:07;;;;;;;3.00;2.70;;;15.10;99.90;;;;;;5013144;28;20038;-72
2021/04/29 12:36:50;;;;;;;4.78;2.65;;;15.00;99.90;;;;;;5011865;28;20033;-72
2021/04/29 12:39:17;;;;;;;3.20;2.90;;;15.00;99.90;;;;;;5012840;28;20033;-73
2021/04/29 12:41:47;;;;;;;3.53;3.22;;;14.70;1.00;;;;;;5010959;28;20026;-74
2021/04/29 12:44:13;;;;;;;3.13;2.83;;;15.00;99.90;;;;;;5012928;28;20121;-74
2021/04/29 12:46:40;;;;;;;3.60;3.17;;;15.10;99.90;;;;;;5012963;28;20034;-73
2021/04/29 12:49:11;;;;;;;4.68;2.85;;;15.20;99.90;;;;;;5009453;28;20057;-76
2021/04/29 12:51:37;;;;;;;;;;;15.20;99.90;;;;;;5013606;28;20030;-72
2021/04/29 12:54:13;;;;;;;3.58;3.28;;;15.00;1.00;;;;;;5010967;28;19909;-73
2021/04/29 12:56:41;;;;;;;4.50;3.60;;;15.30;99.90;;;;;;5022614;28;20516;-72
2021/04/29 12:59:19;;;;;;;4.20;3.80;;;15.10;1.00;;;;;;5021887;28;20046;-73
2021/04/29 13:01:49;;;;;;;5.05;4.55;;;15.20;99.90;;;;;;5011940;28;20389;-74